• Join FlightAware (Why Join?)
  • Login
  • US Flag 
03:40PM EDT


 

Airport Tracker/Info


-or-


 

Live Flight TrackerFlight Track Log ✈ N71ST ✈ 26-Apr-2013 ✈ KBED - KCON

Flight Track Log - Related Links

Times and Time Zones

All times are in EDT time to prevent confusion due to time zone crossing. See the N71ST flight status page for this flight to view local times or setup timezone preferences in your user account.

Time Position Orientation Groundspeed Altitude Reporting Facility
EDT Latitude Longitude Course Direction KTS MPH feet Rate Location/Type
10:46AM 42.4833 -71.2833 20° North 92 106 900  Level KA90
10:47AM 42.5167 -71.2667 20° North 86 99 2,400 1,020 Climbing KA90
10:49AM 42.5333 -71.2500 36° Northeast 98 113 3,600 780 Climbing KA90
10:50AM 42.5667 -71.2667 340° North 118 136 4,200 240 Climbing KA90
10:51AM 42.6000 -71.2833 340° North 143 165 4,100 -120 Descending KA90
10:52AM 42.6500 -71.3000 346° North 136 157 4,000  Descending KA90
10:53AM 42.6833 -71.3000 360° North 130 150 4,100 60 Climbing KA90
10:54AM 42.7167 -71.3167 340° North 137 158 4,200  Climbing KA90
10:55AM 42.7500 -71.3167 360° North 137 158 4,100 -60 Descending KA90
10:56AM 42.7833 -71.3167 360° North 149 171 4,100 -60 Level KA90
10:57AM 42.8167 -71.3333 340° North 154 177 4,000 -60 Descending KA90
10:58AM 42.8667 -71.3500 346° North 133 153 4,000 -180 Level KA90
10:59AM 42.9000 -71.3667 340° North 137 158 3,700 -360 Descending KA90
11:00AM 42.9333 -71.3833 340° North 144 166 3,400 -360 Descending KA90
11:01AM 42.9667 -71.4000 340° North 139 160 3,100 -180 Descending KA90
11:02AM 43.0000 -71.4167 340° North 140 161 3,100 -240 Level KA90
11:03AM 43.0500 -71.4333 346° North 141 162 2,600 -540 Descending KA90
11:05AM 43.1203 -71.4614 344° North  Level FlightAware Approximate
11:12AM 43.2000 -71.5000 340° North  Level FlightAware Approximate
11:13AM 43.2027 -71.5023 340° North  Level Estimated